Time;durP1;ratioP1;P1;durP2;ratioP2;P2;SDS_P1;SDS_P2;PMS_P1;PMS_P2;Temp;Humidity;BMP_temperature;BMP_pressure;BME280_temperature;BME280_humidity;BME280_pressure;Samples;Min_cycle;Max_cycle;Signal;HPM_P1;HPM_P2
2023/05/03 00:00:17;;;;;;;4.88;1.40;;;8.20;62.20;;;;;;5055982;28;20063;-80
2023/05/03 00:02:44;;;;;;;3.53;1.30;;;8.20;62.40;;;;;;5076938;28;20051;-80
2023/05/03 00:05:13;;;;;;;4.30;1.30;;;8.20;62.50;;;;;;5074521;28;20140;-80
2023/05/03 00:07:43;;;;;;;6.72;1.50;;;8.20;62.60;;;;;;5064910;28;20045;-80
2023/05/03 00:10:11;;;;;;;3.83;1.30;;;8.20;62.60;;;;;;5066208;28;20049;-80
2023/05/03 00:12:39;;;;;;;3.83;1.30;;;8.20;62.70;;;;;;5071054;28;20449;-79
2023/05/03 00:15:08;;;;;;;4.13;1.30;;;8.10;62.60;;;;;;5061356;28;20308;-80
2023/05/03 00:17:35;;;;;;;4.05;1.30;;;8.10;62.70;;;;;;5073174;28;20065;-79
2023/05/03 00:20:02;;;;;;;4.35;1.40;;;8.10;62.80;;;;;;5067750;28;20128;-80
2023/05/03 00:22:31;;;;;;;5.53;1.50;;;8.10;62.80;;;;;;5065880;28;20057;-80
2023/05/03 00:24:59;;;;;;;5.30;1.73;;;8.00;63.00;;;;;;5064677;28;20057;-80
2023/05/03 00:27:26;;;;;;;5.32;1.45;;;8.00;62.80;;;;;;5082679;28;20057;-80
2023/05/03 00:29:53;;;;;;;4.70;1.42;;;8.00;62.40;;;;;;5055921;28;20139;-80
2023/05/03 00:32:21;;;;;;;4.75;1.58;;;8.00;62.50;;;;;;5057354;28;20412;-80
2023/05/03 00:34:52;;;;;;;5.43;2.03;;;8.00;62.80;;;;;;5065826;28;20136;-79
2023/05/03 00:37:19;;;;;;;6.85;1.95;;;8.00;62.90;;;;;;5065757;28;20053;-80
2023/05/03 00:39:48;;;;;;;5.82;1.90;;;7.90;62.70;;;;;;5066195;28;20053;-79
2023/05/03 00:42:15;;;;;;;6.05;1.70;;;7.90;62.90;;;;;;5067592;28;20059;-80
2023/05/03 00:44:42;;;;;;;4.50;1.90;;;7.90;63.00;;;;;;5069493;28;20051;-79
2023/05/03 00:47:10;;;;;;;5.07;1.70;;;7.80;63.20;;;;;;5052404;28;20063;-80
2023/05/03 00:49:37;;;;;;;6.55;2.05;;;7.80;63.20;;;;;;5070993;28;20507;-79
2023/05/03 00:52:04;;;;;;;5.50;1.80;;;7.70;63.30;;;;;;5051804;28;20053;-79
2023/05/03 00:54:32;;;;;;;4.57;1.50;;;7.60;63.30;;;;;;5055646;28;20146;-80
2023/05/03 00:57:01;;;;;;;5.07;1.80;;;7.60;63.50;;;;;;5060500;28;20161;-79
2023/05/03 00:59:28;;;;;;;3.53;1.30;;;7.60;63.60;;;;;;5079401;28;21046;-79
2023/05/03 01:01:55;;;;;;;3.47;1.50;;;7.60;63.70;;;;;;5069258;28;20510;-79
2023/05/03 01:04:23;;;;;;;4.30;1.98;;;7.50;63.90;;;;;;5057016;28;20503;-80
2023/05/03 01:06:59;;;;;;;8.55;1.73;;;7.50;63.90;;;;;;5051868;28;20430;-80
2023/05/03 01:09:33;;;;;;;4.80;1.90;;;7.50;64.10;;;;;;5054637;28;20124;-80
2023/05/03 01:12:15;;;;;;;7.73;1.90;;;7.50;64.20;;;;;;5069044;28;20076;-80
2023/05/03 01:14:50;;;;;;;6.35;2.20;;;7.40;64.20;;;;;;5057173;28;20059;-80
2023/05/03 01:17:21;;;;;;;5.90;1.98;;;7.40;64.50;;;;;;5069139;28;20041;-79
2023/05/03 01:19:51;;;;;;;4.82;1.83;;;7.30;64.60;;;;;;5085829;28;20414;-80
2023/05/03 01:22:27;;;;;;;8.00;2.30;;;7.30;64.50;;;;;;5051510;28;20052;-80
2023/05/03 01:25:06;;;;;;;5.73;1.93;;;7.30;64.70;;;;;;5050447;28;20049;-80
2023/05/03 01:27:33;;;;;;;4.78;2.20;;;7.20;64.80;;;;;;5067994;28;20049;-80
2023/05/03 01:30:00;;;;;;;6.85;2.40;;;7.20;64.80;;;;;;5068321;28;20063;-80
2023/05/03 01:32:40;;;;;;;6.88;2.67;;;7.20;64.70;;;;;;5051647;28;20503;-79
2023/05/03 01:35:15;;;;;;;9.52;2.70;;;7.20;65.20;;;;;;5056540;28;20072;-80
2023/05/03 01:37:43;;;;;;;6.03;2.30;;;7.20;65.20;;;;;;5068786;28;20255;-79
2023/05/03 01:40:15;;;;;;;6.57;2.30;;;7.20;65.30;;;;;;5085105;28;20529;-80
2023/05/03 01:42:43;;;;;;;6.32;3.13;;;7.20;65.60;;;;;;5068122;28;20057;-80
2023/05/03 01:45:11;;;;;;;6.93;2.30;;;7.20;65.70;;;;;;5068412;28;20503;-79
2023/05/03 01:47:38;;;;;;;5.35;2.60;;;7.10;65.70;;;;;;5051250;28;20049;-79
2023/05/03 01:50:05;;;;;;;5.63;2.30;;;7.20;65.80;;;;;;5051256;28;20056;-79
2023/05/03 01:52:33;;;;;;;5.68;2.33;;;7.20;65.90;;;;;;5045759;28;20053;-80
2023/05/03 01:55:00;;;;;;;6.00;2.70;;;7.20;66.10;;;;;;5031642;28;20555;-80
2023/05/03 01:57:28;;;;;;;7.10;2.25;;;7.20;65.80;;;;;;5052439;28;20128;-80
2023/05/03 01:59:55;;;;;;;6.00;2.40;;;7.20;66.20;;;;;;5068129;28;20068;-80
2023/05/03 02:02:22;;;;;;;6.77;2.30;;;7.20;66.20;;;;;;5050765;28;20111;-80
2023/05/03 02:04:49;;;;;;;7.10;2.40;;;7.20;66.40;;;;;;5069826;28;20071;-80
2023/05/03 02:07:16;;;;;;;8.00;2.20;;;7.20;66.20;;;;;;5068363;28;20048;-80
2023/05/03 02:09:43;;;;;;;5.30;2.25;;;7.20;66.40;;;;;;5066831;28;20092;-80
2023/05/03 02:12:10;;;;;;;5.53;2.20;;;7.20;66.50;;;;;;5067811;28;20055;-80
2023/05/03 02:14:38;;;;;;;5.03;2.30;;;7.20;66.50;;;;;;5050880;28;20052;-80
2023/05/03 02:17:07;;;;;;;5.53;2.28;;;7.20;66.50;;;;;;5050828;28;20053;-80
2023/05/03 02:19:34;;;;;;;5.80;2.15;;;7.20;66.60;;;;;;5067475;28;20053;-80
2023/05/03 02:22:01;;;;;;;6.47;2.17;;;7.20;66.70;;;;;;5068949;28;20055;-80
2023/05/03 02:24:30;;;;;;;5.13;2.10;;;7.20;66.60;;;;;;5050844;28;20045;-80
2023/05/03 02:26:56;;;;;;;5.50;2.30;;;7.20;66.80;;;;;;5049082;28;20060;-80
2023/05/03 02:29:23;;;;;;;4.78;1.90;;;7.20;66.80;;;;;;5067557;28;20123;-80
2023/05/03 02:31:52;;;;;;;5.45;2.00;;;7.20;66.90;;;;;;5050394;28;20045;-80
2023/05/03 02:34:19;;;;;;;5.55;2.10;;;7.20;66.90;;;;;;5050173;28;20045;-80
2023/05/03 02:36:46;;;;;;;4.70;2.15;;;7.20;66.60;;;;;;5051042;28;20053;-80
2023/05/03 02:39:13;;;;;;;5.77;1.77;;;7.20;66.90;;;;;;5050702;28;20044;-80
2023/05/03 02:41:39;;;;;;;5.47;2.10;;;7.20;66.70;;;;;;5067594;28;20134;-79
2023/05/03 02:44:07;;;;;;;5.38;2.20;;;7.20;66.50;;;;;;5049233;28;20045;-79
2023/05/03 02:46:35;;;;;;;6.78;2.10;;;7.20;66.80;;;;;;5050741;28;20081;-80
2023/05/03 02:49:03;;;;;;;5.68;2.35;;;7.20;66.70;;;;;;5050137;28;20060;-79
2023/05/03 02:51:31;;;;;;;4.33;2.10;;;7.20;66.80;;;;;;5066813;28;20132;-80
2023/05/03 02:53:58;;;;;;;5.53;2.03;;;7.20;66.80;;;;;;5049795;28;20056;-80
2023/05/03 02:56:26;;;;;;;6.00;2.10;;;7.20;66.80;;;;;;5050375;28;20049;-80
2023/05/03 02:58:53;;;;;;;6.20;2.10;;;7.20;66.70;;;;;;5050075;28;20051;-79
2023/05/03 03:01:21;;;;;;;4.88;2.30;;;7.20;66.80;;;;;;5048738;28;20080;-80
2023/05/03 03:03:48;;;;;;;4.73;2.00;;;7.10;66.70;;;;;;5066000;28;20053;-80
2023/05/03 03:06:16;;;;;;;4.93;2.05;;;7.00;66.70;;;;;;5067177;28;20116;-79
2023/05/03 03:08:43;;;;;;;5.45;2.50;;;7.00;66.60;;;;;;5050063;28;20056;-79
2023/05/03 03:11:10;;;;;;;5.50;2.17;;;7.00;66.70;;;;;;5066892;28;20067;-80
2023/05/03 03:13:39;;;;;;;6.32;2.20;;;7.00;66.80;;;;;;5049772;28;20195;-80
2023/05/03 03:16:06;;;;;;;5.50;2.10;;;7.00;66.80;;;;;;5050128;28;20550;-79
2023/05/03 03:18:34;;;;;;;6.35;2.25;;;7.00;66.80;;;;;;5048581;28;20083;-80
2023/05/03 03:21:02;;;;;;;4.47;2.20;;;7.00;66.90;;;;;;5049800;28;20499;-79
2023/05/03 03:23:31;;;;;;;4.70;2.22;;;7.00;66.70;;;;;;5066983;28;20056;-80
2023/05/03 03:25:59;;;;;;;5.43;2.08;;;7.00;66.80;;;;;;5067826;28;20358;-80
2023/05/03 03:28:26;;;;;;;5.40;1.97;;;7.00;66.90;;;;;;5066524;28;20670;-79
2023/05/03 03:30:55;;;;;;;6.72;2.20;;;6.90;66.80;;;;;;5049015;28;20052;-80
2023/05/03 03:33:25;;;;;;;4.43;2.30;;;6.90;66.90;;;;;;5049498;28;20056;-79
2023/05/03 03:35:55;;;;;;;6.45;2.28;;;6.90;66.80;;;;;;5064950;28;20455;-80
2023/05/03 03:38:26;;;;;;;4.70;2.10;;;6.90;66.80;;;;;;5066672;28;20053;-80
2023/05/03 03:41:02;;;;;;;6.03;2.20;;;6.80;66.80;;;;;;5049645;28;20065;-79
2023/05/03 03:43:29;;;;;;;5.95;2.05;;;6.80;66.80;;;;;;5063089;28;20064;-79
2023/05/03 03:45:58;;;;;;;4.22;1.85;;;6.80;66.60;;;;;;5066113;28;20083;-80
2023/05/03 03:48:25;;;;;;;5.80;2.00;;;6.80;66.60;;;;;;5049695;28;20148;-79
2023/05/03 03:50:53;;;;;;;5.65;1.92;;;6.80;66.70;;;;;;5049416;28;20053;-80
2023/05/03 03:53:24;;;;;;;4.43;1.80;;;6.80;66.80;;;;;;5064378;28;20383;-79
2023/05/03 03:55:51;;;;;;;4.53;1.67;;;6.80;66.60;;;;;;5049582;28;20041;-80
2023/05/03 03:58:20;;;;;;;4.70;2.05;;;6.80;66.70;;;;;;5066073;28;20045;-79
2023/05/03 04:00:47;;;;;;;5.43;2.05;;;6.70;66.80;;;;;;5049265;28;20057;-80
2023/05/03 04:03:18;;;;;;;5.38;2.30;;;6.70;66.80;;;;;;5049025;28;20037;-80
2023/05/03 04:05:45;;;;;;;5.37;2.20;;;6.70;66.90;;;;;;5049464;28;20148;-80
2023/05/03 04:08:12;;;;;;;5.30;2.33;;;6.70;66.80;;;;;;5065731;28;20506;-79
2023/05/03 04:10:40;;;;;;;4.90;2.10;;;6.70;66.90;;;;;;5048010;28;20140;-80
2023/05/03 04:13:08;;;;;;;5.05;2.03;;;6.70;67.00;;;;;;5048986;28;20098;-80
2023/05/03 04:15:37;;;;;;;5.57;2.00;;;6.60;66.90;;;;;;5050773;28;20049;-80
2023/05/03 04:18:05;;;;;;;4.67;2.10;;;6.60;66.90;;;;;;5053012;28;20553;-79
2023/05/03 04:20:33;;;;;;;4.63;1.90;;;6.60;66.90;;;;;;5052363;28;20164;-79
2023/05/03 04:23:02;;;;;;;6.30;2.30;;;6.60;67.00;;;;;;5069102;28;20056;-79
2023/05/03 04:25:31;;;;;;;5.43;2.75;;;6.60;66.90;;;;;;5069385;28;20045;-80
2023/05/03 04:28:03;;;;;;;4.18;2.08;;;6.60;66.80;;;;;;5051247;28;20150;-79
2023/05/03 04:30:31;;;;;;;4.07;1.97;;;6.60;66.60;;;;;;5069531;28;20052;-80
2023/05/03 04:33:03;;;;;;;3.60;1.65;;;6.50;66.80;;;;;;5052350;28;20060;-79
2023/05/03 04:35:32;;;;;;;4.47;1.98;;;6.50;67.10;;;;;;5069719;28;20083;-80
2023/05/03 04:38:03;;;;;;;4.28;1.75;;;6.50;67.00;;;;;;5068991;28;20049;-79
2023/05/03 04:40:33;;;;;;;4.55;2.00;;;6.50;67.00;;;;;;5052383;28;20056;-79
2023/05/03 04:43:07;;;;;;;4.17;1.77;;;6.50;67.20;;;;;;5052752;28;20079;-80
2023/05/03 04:45:38;;;;;;;5.85;2.10;;;6.50;67.20;;;;;;5051252;28;20080;-80
2023/05/03 04:48:08;;;;;;;5.70;1.95;;;6.50;67.20;;;;;;5069119;28;20057;-80
2023/05/03 04:50:36;;;;;;;4.70;2.10;;;6.50;67.20;;;;;;5052256;28;20049;-80
2023/05/03 04:53:03;;;;;;;4.35;1.83;;;6.50;67.20;;;;;;5050397;28;20128;-80
2023/05/03 04:55:34;;;;;;;5.63;1.80;;;6.50;67.00;;;;;;5084455;28;20056;-80
2023/05/03 04:58:03;;;;;;;4.63;2.03;;;6.50;67.30;;;;;;5055644;28;20426;-80
2023/05/03 05:00:30;;;;;;;5.68;2.10;;;6.40;67.40;;;;;;5060408;28;20053;-80
2023/05/03 05:03:04;;;;;;;6.40;2.30;;;6.40;67.30;;;;;;5058825;28;20045;-79
2023/05/03 05:05:33;;;;;;;4.45;1.92;;;6.40;67.60;;;;;;5071184;28;20122;-80
2023/05/03 05:08:01;;;;;;;6.70;2.23;;;6.40;67.80;;;;;;5056657;28;20053;-80
2023/05/03 05:10:38;;;;;;;5.85;2.17;;;6.40;67.50;;;;;;5052647;28;20045;-79
2023/05/03 05:13:05;;;;;;;5.32;2.30;;;6.40;67.40;;;;;;5052397;28;20052;-79
2023/05/03 05:15:33;;;;;;;6.70;2.70;;;6.40;67.70;;;;;;5069261;28;20060;-79
2023/05/03 05:18:01;;;;;;;5.82;2.50;;;6.30;67.80;;;;;;5069311;28;20075;-79
2023/05/03 05:20:28;;;;;;;4.97;2.43;;;6.40;68.00;;;;;;5068110;28;21147;-79
2023/05/03 05:22:56;;;;;;;7.93;2.40;;;6.40;68.20;;;;;;5056708;28;20045;-80
2023/05/03 05:25:23;;;;;;;7.18;2.70;;;6.30;68.50;;;;;;5052297;28;20449;-80
2023/05/03 05:27:50;;;;;;;6.38;2.60;;;6.30;68.50;;;;;;5051143;28;21136;-78
2023/05/03 05:30:18;;;;;;;6.07;2.50;;;6.30;68.90;;;;;;5050458;28;20045;-79
2023/05/03 05:32:46;;;;;;;7.93;2.70;;;6.30;69.00;;;;;;5036784;28;20052;-79
2023/05/03 05:35:16;;;;;;;4.95;2.50;;;6.30;69.10;;;;;;5047890;28;20144;-79
2023/05/03 05:37:43;;;;;;;8.75;3.17;;;6.30;69.00;;;;;;5044541;28;20267;-79
2023/05/03 05:40:13;;;;;;;7.55;3.17;;;6.40;69.30;;;;;;5049413;28;20065;-78
2023/05/03 05:42:47;;;;;;;6.85;2.60;;;6.40;69.10;;;;;;5078526;28;20129;-79
2023/05/03 05:45:15;;;;;;;6.77;3.30;;;6.40;69.20;;;;;;5062433;28;20053;-78
2023/05/03 05:47:43;;;;;;;7.22;2.70;;;6.40;70.00;;;;;;5050282;28;20463;-78
2023/05/03 05:50:11;;;;;;;6.72;3.00;;;6.40;70.10;;;;;;5066374;28;20049;-78
2023/05/03 05:52:38;;;;;;;5.60;2.95;;;6.40;70.00;;;;;;5045816;28;20521;-79
2023/05/03 05:55:07;;;;;;;8.20;3.00;;;6.40;70.10;;;;;;5054927;28;20096;-79
2023/05/03 05:57:36;;;;;;;9.53;2.93;;;6.40;69.90;;;;;;5065012;28;20841;-78
2023/05/03 06:00:13;;;;;;;5.43;2.80;;;6.50;70.00;;;;;;5068243;28;20077;-79
2023/05/03 06:02:41;;;;;;;6.20;2.55;;;6.50;70.20;;;;;;5073931;28;20498;-78
2023/05/03 06:05:11;;;;;;;7.45;2.83;;;6.50;69.90;;;;;;5075210;28;20061;-78
2023/05/03 06:07:38;;;;;;;7.07;2.78;;;6.50;69.80;;;;;;5066058;28;20056;-79
2023/05/03 06:10:07;;;;;;;6.97;2.80;;;6.60;70.20;;;;;;5058591;28;20634;-76
2023/05/03 06:12:36;;;;;;;7.80;3.08;;;6.60;70.40;;;;;;5044782;28;20422;-76
2023/05/03 06:15:07;;;;;;;4.53;2.60;;;6.60;70.10;;;;;;5049425;28;20136;-76
2023/05/03 06:17:37;;;;;;;6.63;2.72;;;6.60;69.90;;;;;;5056753;28;20597;-76
2023/05/03 06:20:10;;;;;;;4.82;2.40;;;6.70;69.90;;;;;;5044244;28;20049;-77
2023/05/03 06:22:37;;;;;;;6.67;2.93;;;6.70;70.90;;;;;;5053340;28;20048;-77
2023/05/03 06:25:06;;;;;;;6.63;2.65;;;6.70;70.30;;;;;;5066134;28;20888;-76
2023/05/03 06:27:34;;;;;;;6.18;2.70;;;6.80;70.30;;;;;;5044124;28;20055;-76
2023/05/03 06:30:02;;;;;;;5.22;2.63;;;6.80;70.00;;;;;;5064368;28;20057;-76
2023/05/03 06:32:29;;;;;;;5.95;2.78;;;6.80;70.20;;;;;;5043391;28;20160;-76
2023/05/03 06:34:58;;;;;;;6.53;2.70;;;6.90;70.60;;;;;;5053713;28;20056;-77
2023/05/03 06:37:26;;;;;;;5.47;2.63;;;6.90;70.80;;;;;;5067888;28;20055;-76
2023/05/03 06:39:53;;;;;;;9.07;2.60;;;6.90;71.20;;;;;;5049901;28;20585;-76
2023/05/03 06:42:20;;;;;;;5.90;2.60;;;7.00;71.40;;;;;;5050290;28;20049;-76
2023/05/03 06:44:48;;;;;;;5.65;2.10;;;7.00;71.10;;;;;;5069013;28;20060;-76
2023/05/03 06:47:19;;;;;;;10.87;2.87;;;7.00;70.90;;;;;;5058684;28;20999;-76
2023/05/03 06:49:46;;;;;;;7.30;2.30;;;7.10;70.70;;;;;;5074777;28;20052;-76
2023/05/03 06:52:13;;;;;;;5.13;1.92;;;7.20;70.40;;;;;;5052929;28;20120;-77
2023/05/03 06:54:40;;;;;;;6.88;2.10;;;7.20;70.40;;;;;;5072897;28;20052;-77
2023/05/03 06:57:09;;;;;;;5.28;1.83;;;7.20;70.70;;;;;;5074305;28;20053;-77
2023/05/03 06:59:36;;;;;;;6.17;1.90;;;7.30;70.40;;;;;;5076507;28;20057;-76
2023/05/03 07:02:03;;;;;;;3.75;1.20;;;7.40;70.50;;;;;;5076346;28;20056;-74
2023/05/03 07:04:31;;;;;;;4.00;1.20;;;7.40;70.30;;;;;;5075343;28;20052;-74
2023/05/03 07:06:59;;;;;;;4.30;1.60;;;7.50;70.70;;;;;;5049214;28;20053;-77
2023/05/03 07:09:26;;;;;;;4.00;1.30;;;7.50;71.20;;;;;;5067367;28;20498;-77
2023/05/03 07:11:53;;;;;;;4.17;1.13;;;7.50;71.30;;;;;;5060405;28;20048;-77
2023/05/03 07:14:20;;;;;;;4.20;1.42;;;7.60;71.10;;;;;;5070484;28;20049;-77
2023/05/03 07:16:47;;;;;;;3.22;1.27;;;7.70;70.90;;;;;;5074565;28;20045;-78
2023/05/03 07:19:14;;;;;;;3.45;1.10;;;7.80;70.60;;;;;;5056406;28;20056;-77
2023/05/03 07:21:42;;;;;;;3.40;0.88;;;7.80;70.50;;;;;;5063465;28;20056;-77
2023/05/03 07:24:11;;;;;;;2.73;0.77;;;7.80;70.10;;;;;;5052370;28;20144;-77
2023/05/03 07:26:38;;;;;;;3.17;0.70;;;7.90;69.60;;;;;;5046347;28;20057;-77
2023/05/03 07:29:05;;;;;;;4.18;0.70;;;8.00;69.30;;;;;;5068850;28;20511;-77
2023/05/03 07:31:32;;;;;;;3.63;1.00;;;8.00;69.40;;;;;;5067353;28;20045;-77
2023/05/03 07:33:59;;;;;;;3.78;0.82;;;8.10;69.30;;;;;;5067402;28;20056;-78
2023/05/03 07:36:31;;;;;;;6.90;1.40;;;8.10;69.00;;;;;;5063635;28;20144;-77
2023/05/03 07:38:59;;;;;;;5.43;0.75;;;8.20;69.00;;;;;;5058836;28;20431;-78
2023/05/03 07:41:26;;;;;;;3.22;0.90;;;8.20;68.70;;;;;;5079263;28;20049;-78
2023/05/03 07:43:54;;;;;;;3.88;1.02;;;8.30;68.40;;;;;;5071870;28;20908;-77
2023/05/03 07:46:21;;;;;;;3.83;0.85;;;8.30;68.00;;;;;;5076063;28;20127;-78
2023/05/03 07:48:49;;;;;;;3.33;0.77;;;8.30;67.70;;;;;;5072552;28;20044;-77
2023/05/03 07:51:16;;;;;;;3.03;0.88;;;8.40;67.30;;;;;;5080130;28;20569;-78
2023/05/03 07:53:43;;;;;;;3.10;1.10;;;8.40;67.50;;;;;;5067358;28;20048;-77
2023/05/03 07:56:12;;;;;;;3.90;0.82;;;8.50;67.30;;;;;;5058198;28;20049;-78
2023/05/03 07:58:39;;;;;;;4.10;0.88;;;8.50;67.20;;;;;;5072507;28;20523;-77
2023/05/03 08:01:06;;;;;;;4.20;0.90;;;8.60;66.90;;;;;;5069748;28;20049;-77
2023/05/03 08:03:33;;;;;;;3.97;1.02;;;8.60;66.80;;;;;;5071236;28;20053;-78
2023/05/03 08:06:00;;;;;;;2.97;0.90;;;8.60;66.70;;;;;;5068897;28;20111;-78
2023/05/03 08:08:28;;;;;;;3.90;1.13;;;8.70;66.50;;;;;;5053126;28;20084;-77
2023/05/03 08:10:55;;;;;;;3.20;0.90;;;8.70;66.50;;;;;;5062182;28;21082;-78
2023/05/03 08:13:23;;;;;;;4.73;1.30;;;8.80;66.30;;;;;;5084402;28;20869;-78
2023/05/03 08:15:50;;;;;;;4.20;1.30;;;8.80;66.40;;;;;;5077939;28;20053;-78
2023/05/03 08:18:17;;;;;;;3.13;1.30;;;8.90;66.30;;;;;;5078274;28;20101;-77
2023/05/03 08:20:45;;;;;;;4.53;1.20;;;8.90;66.40;;;;;;5058766;28;20051;-77
2023/05/03 08:23:12;;;;;;;5.18;1.30;;;9.00;66.50;;;;;;5074294;28;20083;-77
2023/05/03 08:25:39;;;;;;;4.30;1.20;;;9.00;66.60;;;;;;5069761;28;20124;-77
2023/05/03 08:28:07;;;;;;;3.40;1.17;;;9.00;66.50;;;;;;5078240;28;20568;-77
2023/05/03 08:30:36;;;;;;;3.92;1.15;;;9.10;66.90;;;;;;5080153;28;20045;-77
2023/05/03 08:33:03;;;;;;;2.65;0.90;;;9.20;66.70;;;;;;5078211;28;20450;-77
2023/05/03 08:35:30;;;;;;;3.83;1.00;;;9.20;66.50;;;;;;5069173;28;20056;-77
2023/05/03 08:37:57;;;;;;;4.73;1.30;;;9.40;66.20;;;;;;5078246;28;20055;-77
2023/05/03 08:40:28;;;;;;;6.07;1.30;;;9.40;66.20;;;;;;5077309;28;20079;-77
2023/05/03 08:42:57;;;;;;;4.65;1.50;;;9.50;66.20;;;;;;5078113;28;20136;-77
2023/05/03 08:45:25;;;;;;;3.78;1.40;;;9.50;66.30;;;;;;5071822;28;20045;-77
2023/05/03 08:47:55;;;;;;;3.25;1.30;;;9.60;66.40;;;;;;5069208;28;20211;-77
2023/05/03 08:50:24;;;;;;;5.40;1.50;;;9.70;66.60;;;;;;5052325;28;20060;-77
2023/05/03 08:52:51;;;;;;;3.83;1.35;;;9.80;66.30;;;;;;5072191;28;20048;-77
2023/05/03 08:55:18;;;;;;;3.00;1.10;;;10.00;66.00;;;;;;5072255;28;20053;-77
2023/05/03 08:58:36;;;;;;;4.90;1.27;;;10.00;65.70;;;;;;5076568;28;20076;-76
2023/05/03 09:01:08;;;;;;;5.20;1.27;;;10.10;65.00;;;;;;5075258;28;20049;-77
2023/05/03 09:03:37;;;;;;;6.93;1.67;;;10.20;65.20;;;;;;5068798;28;20084;-77
2023/05/03 09:06:20;;;;;;;4.50;1.35;;;10.30;65.00;;;;;;5050314;28;20060;-77
2023/05/03 09:08:47;;;;;;;7.03;1.58;;;10.40;64.60;;;;;;5076927;28;20057;-78
2023/05/03 09:11:20;;;;;;;3.65;1.10;;;10.50;64.20;;;;;;5068984;28;20085;-78
2023/05/03 09:13:47;;;;;;;4.43;1.20;;;10.50;64.50;;;;;;5055111;28;20044;-78
2023/05/03 09:16:22;;;;;;;4.33;1.70;;;10.60;64.30;;;;;;5077175;28;20077;-79
2023/05/03 09:19:01;;;;;;;3.42;1.30;;;10.70;64.50;;;;;;5060982;28;20052;-78
2023/05/03 09:21:30;;;;;;;4.05;1.67;;;10.80;63.80;;;;;;5078248;28;20052;-77
2023/05/03 09:23:57;;;;;;;5.07;1.42;;;10.90;63.70;;;;;;5075973;28;20147;-75
2023/05/03 09:26:28;;;;;;;15.27;7.47;;;10.90;63.40;;;;;;5077347;28;20432;-72
2023/05/03 09:28:55;;;;;;;50.90;10.33;;;11.00;63.40;;;;;;5074308;28;20049;-81
2023/05/03 09:31:22;;;;;;;5.68;1.70;;;11.10;63.20;;;;;;5066617;28;20057;-82
2023/05/03 09:33:50;;;;;;;59.42;5.43;;;11.10;63.20;;;;;;5076968;28;21042;-81
2023/05/03 09:36:18;;;;;;;12.35;1.67;;;11.30;63.10;;;;;;5077467;28;20083;-82
2023/05/03 09:38:45;;;;;;;4.25;1.20;;;11.30;62.70;;;;;;5072246;28;20049;-81
2023/05/03 09:41:13;;;;;;;6.10;1.70;;;11.40;62.90;;;;;;5071942;28;20554;-81
2023/05/03 09:43:49;;;;;;;5.35;1.58;;;11.50;62.90;;;;;;5063587;28;20048;-81
2023/05/03 09:46:16;;;;;;;5.32;1.35;;;11.50;62.60;;;;;;5076591;28;20561;-81
2023/05/03 09:48:44;;;;;;;6.18;1.40;;;11.60;62.10;;;;;;5068497;28;20068;-81
2023/05/03 09:51:12;;;;;;;6.95;1.67;;;11.70;61.90;;;;;;5076510;28;20558;-81
2023/05/03 09:53:41;;;;;;;5.83;1.80;;;11.70;62.40;;;;;;5070855;28;20132;-81
2023/05/03 09:56:12;;;;;;;4.47;1.52;;;11.80;62.20;;;;;;5074346;28;20059;-81
2023/05/03 09:58:39;;;;;;;4.35;1.35;;;11.90;62.00;;;;;;5082849;28;20053;-81
2023/05/03 10:01:06;;;;;;;4.05;1.40;;;11.90;61.50;;;;;;5065115;28;20041;-81
2023/05/03 10:03:39;;;;;;;6.38;1.70;;;12.00;60.40;;;;;;5075214;28;20091;-81
2023/05/03 10:06:16;;;;;;;4.93;1.43;;;12.00;59.40;;;;;;5080377;28;20098;-81
2023/05/03 10:08:52;;;;;;;5.03;1.45;;;12.10;59.90;;;;;;5078121;28;20108;-82
2023/05/03 10:11:19;;;;;;;8.43;1.70;;;12.10;60.00;;;;;;5065435;28;20053;-82
2023/05/03 10:13:47;;;;;;;4.93;1.73;;;12.20;59.50;;;;;;5067539;28;20049;-81
2023/05/03 10:16:20;;;;;;;5.43;1.55;;;12.30;59.60;;;;;;5066773;28;20604;-81
2023/05/03 10:18:52;;;;;;;4.37;1.60;;;12.40;59.90;;;;;;5061536;28;20491;-79
2023/05/03 10:21:30;;;;;;;5.03;1.60;;;12.50;59.70;;;;;;5071267;28;20621;-80
2023/05/03 10:24:12;;;;;;;3.20;1.30;;;12.50;59.60;;;;;;5045665;28;20055;-80
2023/05/03 10:26:41;;;;;;;3.78;1.42;;;12.50;59.80;;;;;;5053092;28;20613;-80
2023/05/03 10:29:47;;;;;;;3.85;1.13;;;12.50;60.40;;;;;;5074505;28;20083;-80
2023/05/03 10:32:34;;;;;;;5.03;1.70;;;12.70;60.90;;;;;;5075024;28;20407;-80
2023/05/03 10:35:04;;;;;;;5.95;1.67;;;12.80;60.30;;;;;;5060217;28;20131;-81
2023/05/03 10:37:33;;;;;;;4.07;1.52;;;12.80;59.70;;;;;;5083996;28;20122;-80
2023/05/03 10:40:09;;;;;;;4.60;1.55;;;12.90;59.70;;;;;;5072502;28;20054;-80
2023/05/03 10:42:37;;;;;;;4.00;1.70;;;13.00;60.00;;;;;;5075397;28;20041;-80
2023/05/03 10:45:07;;;;;;;7.03;2.03;;;13.00;60.00;;;;;;5070030;28;20049;-80
2023/05/03 10:47:34;;;;;;;9.48;2.28;;;13.10;59.90;;;;;;5067540;28;20514;-81
2023/05/03 10:50:32;;;;;;;4.35;2.10;;;13.10;58.90;;;;;;5070217;28;20704;-81
2023/05/03 10:52:58;;;;;;;5.30;2.10;;;13.20;58.90;;;;;;4987463;28;20633;-82
2023/05/03 10:55:27;;;;;;;6.15;2.08;;;13.30;58.70;;;;;;5052335;28;20525;-83
2023/05/03 10:57:56;;;;;;;6.87;2.30;;;13.30;58.60;;;;;;5060131;28;20100;-81
2023/05/03 11:00:28;;;;;;;5.70;2.10;;;13.50;58.30;;;;;;5083860;28;20045;-81
2023/05/03 11:03:22;;;;;;;4.45;1.98;;;13.50;58.40;;;;;;5074689;28;20052;-81
2023/05/03 11:05:49;;;;;;;5.35;2.10;;;13.60;58.60;;;;;;5069979;28;20053;-81
2023/05/03 11:08:18;;;;;;;4.40;2.20;;;13.70;58.10;;;;;;5077451;28;20161;-81
2023/05/03 11:10:47;;;;;;;3.97;1.90;;;13.80;57.60;;;;;;5080397;28;20140;-82
2023/05/03 11:13:14;;;;;;;3.90;1.85;;;13.90;57.60;;;;;;5067335;28;20534;-81
2023/05/03 11:15:42;;;;;;;3.85;1.95;;;13.90;57.20;;;;;;5065802;28;20048;-82
2023/05/03 11:18:11;;;;;;;4.43;2.00;;;13.90;57.10;;;;;;5061219;28;20482;-81
2023/05/03 11:20:38;;;;;;;4.82;2.10;;;14.00;57.10;;;;;;5068095;28;20056;-81
2023/05/03 11:23:06;;;;;;;4.97;1.70;;;14.10;57.40;;;;;;5047747;28;20048;-81
2023/05/03 11:25:34;;;;;;;3.72;2.00;;;14.10;56.80;;;;;;5044408;28;20064;-81
2023/05/03 11:28:03;;;;;;;3.58;1.70;;;14.20;56.80;;;;;;5066800;28;20570;-82
2023/05/03 11:30:33;;;;;;;9.23;2.45;;;14.20;55.70;;;;;;5039756;28;20092;-81
2023/05/03 11:33:01;;;;;;;4.30;1.83;;;14.30;55.50;;;;;;5052763;28;20794;-82
2023/05/03 11:35:30;;;;;;;6.30;2.23;;;14.40;55.70;;;;;;5062361;28;20076;-78
2023/05/03 11:37:57;;;;;;;6.38;2.17;;;14.40;55.50;;;;;;5044347;28;20057;-79
2023/05/03 11:40:25;;;;;;;4.35;2.35;;;14.50;55.00;;;;;;5066191;28;20096;-79
2023/05/03 11:42:53;;;;;;;5.60;2.05;;;14.50;55.40;;;;;;5063403;28;20049;-79
2023/05/03 11:45:23;;;;;;;8.75;2.50;;;14.60;55.40;;;;;;5063479;28;20057;-79
2023/05/03 11:47:51;;;;;;;6.70;2.03;;;14.60;55.30;;;;;;5063587;28;20060;-79
2023/05/03 11:50:18;;;;;;;6.68;2.00;;;14.70;55.90;;;;;;5067773;28;20049;-79
2023/05/03 11:52:45;;;;;;;6.63;2.42;;;14.80;55.90;;;;;;5027519;28;20207;-80
2023/05/03 11:55:13;;;;;;;4.72;2.03;;;14.90;56.90;;;;;;5034636;28;20050;-79
2023/05/03 11:57:41;;;;;;;4.70;1.92;;;15.00;55.80;;;;;;5041552;28;20052;-80
2023/05/03 12:00:13;;;;;;;5.37;1.90;;;15.00;55.00;;;;;;5046136;28;20054;-79
2023/05/03 12:02:41;;;;;;;4.22;1.80;;;15.10;54.30;;;;;;5059911;28;20049;-79
2023/05/03 12:05:09;;;;;;;4.47;2.00;;;15.20;54.30;;;;;;5050233;28;20050;-79
2023/05/03 12:07:37;;;;;;;5.15;2.30;;;15.20;53.90;;;;;;5063787;28;20080;-79
2023/05/03 12:10:18;;;;;;;6.57;2.80;;;15.20;54.20;;;;;;5046156;28;20065;-79
2023/05/03 12:12:56;;;;;;;5.73;2.50;;;15.30;54.50;;;;;;5047629;28;20045;-78
2023/05/03 12:15:36;;;;;;;6.57;2.35;;;15.30;54.10;;;;;;5045583;28;20053;-79
2023/05/03 12:18:06;;;;;;;4.90;1.90;;;15.40;53.40;;;;;;5046124;28;20140;-79
2023/05/03 12:20:33;;;;;;;5.07;2.17;;;15.40;53.20;;;;;;5048292;28;20111;-79
2023/05/03 12:23:02;;;;;;;3.80;2.13;;;15.50;53.40;;;;;;5028522;28;20092;-79
2023/05/03 12:25:35;;;;;;;4.30;2.13;;;15.60;53.40;;;;;;5045386;28;20049;-80
2023/05/03 12:28:03;;;;;;;7.63;2.20;;;15.50;53.20;;;;;;5046215;28;20053;-80
2023/05/03 12:30:31;;;;;;;6.65;2.20;;;15.60;52.80;;;;;;5049219;28;20053;-79
2023/05/03 12:32:58;;;;;;;5.05;2.40;;;15.60;53.40;;;;;;5057385;28;20342;-79
2023/05/03 12:35:26;;;;;;;3.90;2.20;;;15.60;53.40;;;;;;5066965;28;20064;-79
2023/05/03 12:37:53;;;;;;;5.20;2.10;;;15.70;53.40;;;;;;5052472;28;20045;-79
2023/05/03 12:40:23;;;;;;;5.97;2.00;;;15.80;53.40;;;;;;5059895;28;20049;-80
2023/05/03 12:42:50;;;;;;;4.47;2.10;;;15.90;53.10;;;;;;5049729;28;20100;-80
2023/05/03 12:45:17;;;;;;;5.75;2.20;;;16.00;53.10;;;;;;5059081;28;20939;-80
2023/05/03 12:47:47;;;;;;;5.97;2.50;;;16.00;52.50;;;;;;5069834;28;20045;-79
2023/05/03 12:50:15;;;;;;;4.43;1.90;;;16.10;51.80;;;;;;5070409;28;20045;-80
2023/05/03 12:52:43;;;;;;;5.68;1.88;;;16.10;52.00;;;;;;5055551;28;20048;-80
2023/05/03 12:55:10;;;;;;;4.20;1.95;;;16.20;52.60;;;;;;5061028;28;20056;-82
2023/05/03 12:57:37;;;;;;;4.88;1.95;;;16.20;52.30;;;;;;5071030;28;20061;-80
2023/05/03 13:00:06;;;;;;;3.53;1.83;;;16.20;51.80;;;;;;5062897;28;20088;-79
2023/05/03 13:02:33;;;;;;;6.17;1.83;;;16.40;51.70;;;;;;5065719;28;20061;-79